Time;durP1;ratioP1;P1;durP2;ratioP2;P2;SDS_P1;SDS_P2;PMS_P1;PMS_P2;Temp;Humidity;BMP_temperature;BMP_pressure;BME280_temperature;BME280_humidity;BME280_pressure;Samples;Min_cycle;Max_cycle;Signal;HPM_P1;HPM_P2
2021/03/15 00:02:07;;;;;;;18.95;10.18;;;;;;;4.68;90.78;100953.91;5277200;28;20039;-70
2021/03/15 00:04:38;;;;;;;17.02;10.93;;;;;;;4.70;90.28;100944.25;5257038;28;20795;-69
2021/03/15 00:07:10;;;;;;;16.08;10.40;;;;;;;4.71;91.08;100943.34;5280192;28;20042;-69
2021/03/15 00:09:41;;;;;;;16.48;10.90;;;;;;;4.71;90.88;100931.19;5278350;28;20032;-70
2021/03/15 00:12:13;;;;;;;17.90;11.45;;;;;;;4.72;90.18;100927.66;5277203;28;20040;-70
2021/03/15 00:14:45;;;;;;;20.05;12.98;;;;;;;4.73;90.88;100928.50;5279549;28;20035;-70
2021/03/15 00:17:16;;;;;;;19.35;13.02;;;;;;;4.74;90.66;100917.22;5278823;28;20028;-70
2021/03/15 00:19:47;;;;;;;20.85;14.15;;;;;;;4.75;90.91;100908.50;5279215;28;20016;-70
2021/03/15 00:22:20;;;;;;;18.38;13.25;;;;;;;4.76;91.27;100904.97;5275741;28;20028;-70
2021/03/15 00:24:51;;;;;;;22.38;14.57;;;;;;;4.75;90.69;100905.91;5277022;28;20082;-70
2021/03/15 00:27:22;;;;;;;23.25;15.48;;;;;;;4.77;91.16;100894.50;5257984;28;20032;-70
2021/03/15 00:29:53;;;;;;;19.67;16.20;;;;;;;4.77;90.92;100891.91;5276035;28;20524;-69
2021/03/15 00:32:25;;;;;;;20.73;16.92;;;;;;;4.76;91.74;100891.97;5279595;28;20388;-70
2021/03/15 00:34:56;;;;;;;24.70;15.95;;;;;;;4.78;91.77;100892.75;5277375;28;20169;-70
2021/03/15 00:37:28;;;;;;;29.05;17.20;;;;;;;4.77;91.38;100886.72;5276666;28;20370;-70
2021/03/15 00:39:59;;;;;;;22.58;15.68;;;;;;;4.80;91.85;100883.09;5282919;28;20513;-70
2021/03/15 00:42:30;;;;;;;21.60;15.63;;;;;;;4.80;91.88;100872.69;5277968;28;20028;-70
2021/03/15 00:45:05;;;;;;;23.63;16.13;;;;;;;4.80;91.66;100867.50;5279262;28;20039;-69
2021/03/15 00:47:37;;;;;;;23.65;16.52;;;;;;;4.79;92.58;100864.09;5279971;28;20119;-70
2021/03/15 00:50:16;;;;;;;22.15;16.10;;;;;;;4.83;92.13;100859.53;5264238;28;20012;-70
2021/03/15 00:52:48;;;;;;;22.48;16.13;;;;;;;4.82;92.05;100860.47;5281907;28;20071;-70
2021/03/15 00:55:20;;;;;;;22.23;16.00;;;;;;;4.84;91.70;100866.41;5282372;28;20052;-69
2021/03/15 00:57:51;;;;;;;26.30;16.58;;;;;;;4.83;92.43;100862.13;5276050;28;20032;-69
2021/03/15 01:00:26;;;;;;;25.30;16.48;;;;;;;4.84;91.45;100858.63;5281153;28;20481;-69
2021/03/15 01:02:57;;;;;;;22.15;17.67;;;;;;;4.83;92.28;100856.94;5277836;28;20489;-69
2021/03/15 01:05:34;;;;;;;22.75;16.63;;;;;;;4.87;92.46;100850.63;5282659;28;20032;-69
2021/03/15 01:08:10;;;;;;;24.48;16.52;;;;;;;4.82;92.31;100840.53;5282706;28;20107;-69
2021/03/15 01:10:44;;;;;;;22.50;16.13;;;;;;;4.86;91.67;100839.44;5280115;28;20032;-69
2021/03/15 01:13:16;;;;;;;25.38;16.33;;;;;;;4.87;92.83;100832.47;5279136;28;20110;-69
2021/03/15 01:15:48;;;;;;;26.42;18.05;;;;;;;4.86;92.25;100836.84;5278774;28;20111;-70
2021/03/15 01:18:19;;;;;;;22.92;16.45;;;;;;;4.89;91.63;100838.41;5280556;28;20019;-69
2021/03/15 01:20:50;;;;;;;24.83;17.30;;;;;;;4.88;91.99;100834.13;5283954;28;20475;-70
2021/03/15 01:23:21;;;;;;;28.00;17.23;;;;;;;4.87;91.77;100833.31;5285338;28;20054;-70
2021/03/15 01:25:53;;;;;;;24.58;17.80;;;;;;;4.90;92.16;100829.69;5279226;28;20297;-69
2021/03/15 01:28:24;;;;;;;27.45;18.08;;;;;;;4.90;91.85;100826.28;5283696;28;20493;-70
2021/03/15 01:30:55;;;;;;;22.15;17.85;;;;;;;4.88;92.32;100816.78;5285302;28;20061;-69
2021/03/15 01:33:27;;;;;;;21.77;16.95;;;;;;;4.93;91.86;100828.69;5293588;28;20105;-70
2021/03/15 01:35:58;;;;;;;24.38;16.88;;;;;;;4.93;92.23;100824.31;5284437;28;20070;-70
2021/03/15 01:38:30;;;;;;;24.70;17.60;;;;;;;4.97;92.09;100824.97;5271870;28;20090;-69
2021/03/15 01:41:01;;;;;;;28.15;18.50;;;;;;;4.98;92.38;100821.44;5278488;28;20487;-70
2021/03/15 01:43:32;;;;;;;25.00;18.75;;;;;;;4.98;92.35;100818.84;5280426;28;20489;-69
2021/03/15 01:46:04;;;;;;;26.80;20.05;;;;;;;4.99;nan;100821.31;5281899;28;20035;-70
2021/03/15 01:48:35;;;;;;;27.23;18.95;;;;;;;5.04;92.17;100821.91;5283018;28;20031;-70
2021/03/15 01:51:07;;;;;;;23.35;19.17;;;;;;;5.06;91.94;100816.59;5279501;28;20039;-70
2021/03/15 01:53:38;;;;;;;29.38;19.83;;;;;;;5.09;91.71;100824.19;5279472;28;20025;-70
2021/03/15 01:56:10;;;;;;;29.10;21.10;;;;;;;5.10;92.13;100820.66;5278859;28;20032;-69
2021/03/15 01:58:43;;;;;;;28.48;20.80;;;;;;;5.11;92.48;100827.53;5282836;28;20580;-70
2021/03/15 02:01:15;;;;;;;31.15;20.92;;;;;;;5.13;92.08;100826.50;5280096;28;20052;-70
2021/03/15 02:03:47;;;;;;;29.83;21.52;;;;;;;5.14;91.77;100822.13;5278758;28;20043;-70
2021/03/15 02:06:18;;;;;;;26.42;19.35;;;;;;;5.16;92.40;100822.06;5278812;28;20416;-70
2021/03/15 02:08:49;;;;;;;28.60;19.45;;;;;;;5.19;91.89;100814.91;5283807;28;20038;-69
2021/03/15 02:12:03;;;;;;;26.67;18.20;;;;;;;5.20;92.55;100808.78;5282942;28;20236;-70
2021/03/15 02:15:12;;;;;;;25.50;17.42;;;;;;;5.26;93.02;100816.16;5279810;28;20443;-70
2021/03/15 02:18:11;;;;;;;25.25;16.95;;;;;;;5.28;92.19;100821.28;5282454;28;20027;-70
2021/03/15 02:21:01;;;;;;;26.80;18.27;;;;;;;5.29;91.83;100820.34;5261034;28;20042;-70
2021/03/15 02:23:41;;;;;;;22.70;17.83;;;;;;;5.32;92.41;100830.56;5280788;28;20048;-70
2021/03/15 02:26:27;;;;;;;25.50;17.77;;;;;;;5.34;92.33;100826.94;5279618;28;20485;-70
2021/03/15 02:29:10;;;;;;;23.40;16.35;;;;;;;5.37;91.13;100828.47;5281702;28;20530;-70
2021/03/15 02:32:06;;;;;;;22.52;16.50;;;;;;;5.38;91.58;100832.78;5280421;28;20052;-70
2021/03/15 02:34:56;;;;;;;24.95;17.35;;;;;;;5.41;91.62;100832.56;5280233;28;20501;-70
2021/03/15 02:37:35;;;;;;;22.83;15.43;;;;;;;5.41;91.48;100829.97;5279708;28;20109;-70
2021/03/15 02:40:13;;;;;;;24.63;15.43;;;;;;;5.38;91.21;100837.97;5283620;28;20012;-70
2021/03/15 02:42:49;;;;;;;19.73;13.98;;;;;;;5.44;91.15;100840.16;5280009;28;20370;-70
2021/03/15 02:45:23;;;;;;;21.77;14.73;;;;;;;5.40;91.60;100840.47;5281049;28;20650;-69
2021/03/15 02:47:55;;;;;;;;;;;;;;;5.52;90.31;100832.72;5280883;28;20110;-69
2021/03/15 02:50:27;;;;;;;17.58;13.45;;;;;;;5.42;90.72;100838.56;5280947;28;19916;-70
2021/03/15 02:53:02;;;;;;;18.97;12.53;;;;;;;5.43;90.90;100845.47;5281686;28;20028;-69
2021/03/15 02:55:34;;;;;;;22.25;14.55;;;;;;;5.37;91.38;100837.09;5281605;28;20055;-69
2021/03/15 02:58:06;;;;;;;20.33;13.98;;;;;;;5.35;91.51;100830.38;5282493;28;20181;-70
2021/03/15 03:00:40;;;;;;;19.58;12.88;;;;;;;5.39;91.06;100839.63;5278767;28;20440;-70
2021/03/15 03:03:12;;;;;;;18.92;12.65;;;;;;;5.39;91.29;100847.44;5279675;28;20416;-70
2021/03/15 03:05:46;;;;;;;15.82;11.73;;;;;;;5.32;91.46;100844.38;5279777;28;20031;-70
2021/03/15 03:08:21;;;;;;;19.40;11.38;;;;;;;5.40;90.76;100851.69;5281976;28;20291;-70
2021/03/15 03:10:54;;;;;;;14.80;11.02;;;;;;;5.40;90.87;100851.69;5279820;28;20036;-70
2021/03/15 03:13:27;;;;;;;14.02;10.50;;;;;;;5.32;90.67;100846.13;5276847;28;20032;-70
2021/03/15 03:15:58;;;;;;;17.80;11.60;;;;;;;5.38;91.10;100858.75;5279420;28;20481;-70
2021/03/15 03:18:31;;;;;;;15.82;10.43;;;;;;;5.34;91.18;100863.31;5275823;28;20036;-70
2021/03/15 03:21:05;;;;;;;14.10;9.10;;;;;;;5.34;89.87;100872.84;5279954;28;20032;-70
2021/03/15 03:23:39;;;;;;;13.35;8.52;;;;;;;5.32;90.65;100870.34;5280417;28;20032;-70
2021/03/15 03:26:10;;;;;;;11.82;8.90;;;;;;;5.29;90.00;100878.31;5279964;28;20028;-70
2021/03/15 03:28:45;;;;;;;11.18;8.15;;;;;;;5.31;89.74;100875.66;5271750;28;20033;-70
2021/03/15 03:31:18;;;;;;;10.20;7.60;;;;;;;5.23;89.88;100883.91;5277963;28;20055;-70
2021/03/15 03:33:50;;;;;;;12.80;8.68;;;;;;;5.24;90.12;100897.75;5274420;28;20509;-70
2021/03/15 03:36:21;;;;;;;9.77;7.57;;;;;;;5.24;89.92;100890.78;5269998;28;20032;-70
2021/03/15 03:38:54;;;;;;;13.82;8.98;;;;;;;5.26;89.80;100893.25;5278164;28;20035;-70
2021/03/15 03:41:25;;;;;;;10.85;8.70;;;;;;;5.27;90.14;100889.75;5278731;28;20029;-70
2021/03/15 03:43:57;;;;;;;12.30;8.68;;;;;;;5.22;90.29;100905.59;5277196;28;20132;-70
2021/03/15 03:46:28;;;;;;;9.75;7.68;;;;;;;5.19;90.57;100913.59;5280102;28;20040;-70
2021/03/15 03:49:01;;;;;;;10.27;6.75;;;;;;;5.20;89.47;100911.84;5279547;28;20032;-70
2021/03/15 03:51:41;;;;;;;9.40;6.30;;;;;;;5.16;89.37;100907.75;5278190;28;20029;-70
2021/03/15 03:54:16;;;;;;;8.20;5.78;;;;;;;5.07;89.69;100907.38;5276169;28;20495;-70
2021/03/15 03:56:56;;;;;;;8.98;5.65;;;;;;;5.03;89.92;100918.03;5275492;28;20032;-70
2021/03/15 03:59:31;;;;;;;8.05;5.43;;;;;;;5.03;89.41;100923.25;5275693;28;20043;-70
2021/03/15 04:02:04;;;;;;;10.73;5.00;;;;;;;5.00;89.88;100926.88;5278031;28;20020;-70
2021/03/15 04:04:41;;;;;;;7.22;4.85;;;;;;;5.01;89.75;100938.91;5276903;28;20035;-70
2021/03/15 04:07:16;;;;;;;6.53;4.28;;;;;;;4.99;89.47;100945.94;5278819;28;20070;-70
2021/03/15 04:09:52;;;;;;;8.95;5.45;;;;;;;5.00;89.61;100945.03;5280788;28;20400;-70
2021/03/15 04:12:25;;;;;;;7.47;4.80;;;;;;;5.01;89.33;100951.06;5278928;28;20119;-70
2021/03/15 04:14:58;;;;;;;8.20;5.30;;;;;;;4.99;89.42;100948.53;5279258;28;20039;-70
2021/03/15 04:17:35;;;;;;;9.55;6.05;;;;;;;5.02;89.61;100957.94;5281878;28;20085;-69
2021/03/15 04:20:12;;;;;;;10.50;5.57;;;;;;;5.00;89.63;100958.03;5279433;28;20034;-70
2021/03/15 04:22:49;;;;;;;11.73;6.93;;;;;;;5.00;89.37;100967.56;5281396;28;20128;-70
2021/03/15 04:25:24;;;;;;;11.27;6.20;;;;;;;4.98;89.02;100962.47;5279814;28;20450;-69
2021/03/15 04:27:57;;;;;;;10.90;6.25;;;;;;;4.96;89.57;100971.25;5278144;28;20040;-69
2021/03/15 04:30:29;;;;;;;11.43;7.20;;;;;;;4.94;89.56;100973.97;5276015;28;20044;-69
2021/03/15 04:33:01;;;;;;;11.80;7.85;;;;;;;4.96;89.01;100966.06;5259160;28;20025;-70
2021/03/15 04:35:35;;;;;;;12.45;8.32;;;;;;;4.94;89.17;100975.72;5277311;28;20078;-70
2021/03/15 04:38:09;;;;;;;10.70;7.43;;;;;;;4.95;88.44;100978.22;5276483;28;20024;-69
2021/03/15 04:40:45;;;;;;;10.75;7.28;;;;;;;4.94;87.75;100971.38;5278311;28;20333;-69
2021/03/15 04:43:17;;;;;;;10.80;7.20;;;;;;;4.92;88.26;100983.59;5279350;28;20035;-69
2021/03/15 04:45:49;;;;;;;11.77;7.40;;;;;;;4.96;88.45;100992.03;5281345;28;20040;-70
2021/03/15 04:48:26;;;;;;;11.95;7.13;;;;;;;4.95;88.92;100996.41;5278669;28;20107;-69
2021/03/15 04:51:00;;;;;;;12.32;8.27;;;;;;;4.95;88.90;100999.00;5278973;28;20135;-70
2021/03/15 04:53:34;;;;;;;10.80;7.50;;;;;;;4.94;88.32;101012.06;5280626;28;20035;-70
2021/03/15 04:56:13;;;;;;;11.63;7.60;;;;;;;4.94;88.24;101007.72;5279964;28;20066;-70
2021/03/15 04:58:49;;;;;;;10.32;6.70;;;;;;;4.95;88.92;101011.13;5280314;28;20397;-70
2021/03/15 05:01:26;;;;;;;11.38;7.07;;;;;;;4.90;88.70;101013.19;5268208;28;20035;-70
2021/03/15 05:03:59;;;;;;;10.20;6.40;;;;;;;4.93;88.52;101020.78;5260369;28;20901;-69
2021/03/15 05:06:32;;;;;;;14.45;7.03;;;;;;;4.88;89.07;101024.47;5277088;28;20025;-70
2021/03/15 05:09:07;;;;;;;15.60;7.68;;;;;;;4.88;89.12;101023.63;5276608;28;20028;-70
2021/03/15 05:11:41;;;;;;;13.55;7.32;;;;;;;4.86;89.24;101036.72;5277293;28;20048;-70
2021/03/15 05:14:12;;;;;;;13.35;7.07;;;;;;;4.87;88.22;101033.19;5277232;28;20033;-70
2021/03/15 05:16:44;;;;;;;11.82;6.35;;;;;;;4.84;88.49;101048.94;5281000;28;20033;-70
2021/03/15 05:19:17;;;;;;;14.63;7.80;;;;;;;4.78;89.25;101041.53;5259195;28;20029;-69
2021/03/15 05:21:49;;;;;;;14.98;7.55;;;;;;;4.81;88.84;101049.13;5276779;28;20039;-70
2021/03/15 05:24:20;;;;;;;11.52;7.50;;;;;;;4.83;88.57;101052.47;5282464;28;20485;-70
2021/03/15 05:26:52;;;;;;;12.73;7.25;;;;;;;4.87;88.51;101055.72;5274410;28;20555;-70
2021/03/15 05:29:24;;;;;;;12.98;6.93;;;;;;;4.87;88.67;101060.91;5278895;28;20031;-70
2021/03/15 05:31:57;;;;;;;14.35;7.95;;;;;;;4.79;89.11;101061.34;5279690;28;20055;-70
2021/03/15 05:34:30;;;;;;;11.05;6.18;;;;;;;4.83;88.09;101062.00;5277418;28;20032;-70
2021/03/15 05:37:03;;;;;;;13.38;7.00;;;;;;;4.84;88.23;101058.47;5280996;28;20042;-70
2021/03/15 05:39:34;;;;;;;11.57;6.45;;;;;;;4.92;87.40;101065.84;5284370;28;20093;-70
2021/03/15 05:42:15;;;;;;;14.95;7.47;;;;;;;4.90;87.37;101076.31;5263147;28;20192;-70
2021/03/15 05:45:23;;;;;;;11.63;7.40;;;;;;;4.93;88.08;101078.75;5283840;28;20562;-70
2021/03/15 05:48:04;;;;;;;11.65;7.22;;;;;;;4.90;88.43;101078.09;5283477;28;20115;-70
2021/03/15 05:50:47;;;;;;;14.80;7.70;;;;;;;4.87;88.14;101085.09;5278420;28;20397;-70
2021/03/15 05:53:37;;;;;;;19.75;8.13;;;;;;;4.86;88.71;101080.00;5283260;28;20047;-70
2021/03/15 05:56:35;;;;;;;14.45;7.82;;;;;;;4.86;88.28;101080.84;5284806;28;20436;-70
2021/03/15 05:59:34;;;;;;;16.30;8.20;;;;;;;4.90;88.91;101089.28;5281099;28;20031;-70
2021/03/15 06:02:27;;;;;;;16.17;8.68;;;;;;;4.86;89.54;101099.00;5280663;28;20082;-70
2021/03/15 06:05:21;;;;;;;13.77;8.52;;;;;;;4.95;88.45;101102.00;5283269;28;20052;-70
2021/03/15 06:08:02;;;;;;;14.20;7.70;;;;;;;4.86;89.00;101100.78;5281486;28;20393;-70
2021/03/15 06:10:36;;;;;;;17.58;8.80;;;;;;;4.87;89.33;101110.22;5281198;28;20473;-70
2021/03/15 06:13:13;;;;;;;17.20;8.77;;;;;;;4.85;88.57;101109.50;5283230;28;20114;-69
2021/03/15 06:15:46;;;;;;;18.52;9.00;;;;;;;4.82;89.40;101107.91;5282292;28;20078;-69
2021/03/15 06:18:17;;;;;;;;;;;;;;;4.95;88.82;101108.03;5277435;28;20031;-70
2021/03/15 06:20:50;;;;;;;13.90;8.57;;;;;;;4.84;89.28;101113.81;5283225;28;20372;-70
2021/03/15 06:23:21;;;;;;;20.10;8.55;;;;;;;4.82;89.05;101112.25;5281880;28;20036;-70
2021/03/15 06:25:54;;;;;;;17.85;8.13;;;;;;;4.81;89.13;101113.16;5280535;28;20047;-70
2021/03/15 06:28:25;;;;;;;21.65;8.77;;;;;;;4.79;88.99;101128.84;5279808;28;20423;-71
2021/03/15 06:30:57;;;;;;;19.38;8.93;;;;;;;4.78;88.77;101128.94;5281302;28;20098;-70
2021/03/15 06:33:28;;;;;;;18.42;9.38;;;;;;;4.73;89.64;101128.34;5277535;28;20039;-70
2021/03/15 06:36:03;;;;;;;13.57;8.32;;;;;;;4.72;89.14;101124.91;5281274;28;20477;-71
2021/03/15 06:38:37;;;;;;;19.85;9.32;;;;;;;4.67;89.80;101124.34;5282684;28;20846;-70
2021/03/15 06:41:09;;;;;;;19.67;8.93;;;;;;;4.68;89.46;101126.00;5280844;28;20020;-71
2021/03/15 06:43:40;;;;;;;17.95;9.10;;;;;;;4.66;89.71;101133.06;5279855;28;20122;-70
2021/03/15 06:46:15;;;;;;;18.45;9.57;;;;;;;4.69;90.40;101140.66;5279793;28;20575;-70
2021/03/15 06:48:46;;;;;;;18.58;9.45;;;;;;;4.73;89.56;101141.31;5284030;28;20454;-71
2021/03/15 06:51:18;;;;;;;18.27;9.55;;;;;;;4.76;90.09;101149.78;5277878;28;20059;-70
2021/03/15 06:53:49;;;;;;;16.98;9.77;;;;;;;4.79;89.73;101153.97;5279480;28;20138;-70
2021/03/15 06:56:20;;;;;;;20.10;9.43;;;;;;;4.84;89.44;101159.72;5281946;28;20063;-69
2021/03/15 06:58:53;;;;;;;23.80;9.60;;;;;;;4.85;89.51;101158.81;5281039;28;20029;-70
2021/03/15 07:01:26;;;;;;;19.17;9.45;;;;;;;4.86;90.09;101161.31;5278418;28;20116;-69
2021/03/15 07:04:06;;;;;;;17.15;9.43;;;;;;;4.91;90.33;101162.81;5276433;28;20093;-70
2021/03/15 07:06:38;;;;;;;17.17;8.75;;;;;;;4.88;89.35;101163.81;5280624;28;20046;-69
2021/03/15 07:09:14;;;;;;;17.50;9.52;;;;;;;4.94;89.75;101173.03;5277865;28;20397;-69
2021/03/15 07:12:00;;;;;;;18.52;9.80;;;;;;;4.95;89.53;101175.53;5280968;28;20125;-70
2021/03/15 07:14:32;;;;;;;13.93;9.73;;;;;;;4.98;89.29;101179.72;5279705;28;20028;-69
2021/03/15 07:17:03;;;;;;;21.58;9.88;;;;;;;5.02;88.32;101184.66;5267121;28;20353;-70
2021/03/15 07:19:34;;;;;;;20.45;10.15;;;;;;;5.02;89.71;101184.66;5273109;28;20035;-70
2021/03/15 07:22:23;;;;;;;19.88;10.32;;;;;;;5.13;88.97;101194.44;5278023;28;20089;-69
2021/03/15 07:25:02;;;;;;;22.70;10.90;;;;;;;5.18;89.41;101207.16;5280909;28;20334;-70
2021/03/15 07:27:36;;;;;;;16.75;9.95;;;;;;;5.24;88.48;101212.03;5272185;28;20032;-70
2021/03/15 07:30:45;;;;;;;14.70;9.32;;;;;;;5.31;88.74;101211.59;5261180;28;20040;-70
2021/03/15 07:33:20;;;;;;;18.15;8.90;;;;;;;5.29;87.64;101215.19;5273697;28;20098;-70
2021/03/15 07:35:52;;;;;;;14.50;9.00;;;;;;;5.32;88.29;101223.66;5274942;28;20046;-70
2021/03/15 07:38:41;;;;;;;17.88;9.38;;;;;;;5.39;88.61;101224.16;5276984;28;20032;-69
2021/03/15 07:41:17;;;;;;;18.77;10.05;;;;;;;5.42;87.94;101234.38;5273817;28;20077;-70
2021/03/15 07:43:50;;;;;;;16.48;8.70;;;;;;;5.44;88.93;101234.28;5276372;28;20037;-69
2021/03/15 07:46:26;;;;;;;18.63;10.20;;;;;;;5.49;88.51;101248.69;5276953;28;20040;-70
2021/03/15 07:48:58;;;;;;;18.85;10.23;;;;;;;5.45;88.27;101238.53;5277664;28;20043;-70
2021/03/15 07:51:30;;;;;;;18.23;9.10;;;;;;;5.53;87.38;101249.31;5277759;28;20036;-69
2021/03/15 07:54:10;;;;;;;19.83;7.53;;;;;;;5.60;87.63;101248.88;5280714;28;20074;-69
2021/03/15 07:56:42;;;;;;;20.27;8.45;;;;;;;5.60;86.88;101254.09;5276424;28;20294;-69
2021/03/15 07:59:13;;;;;;;17.15;6.97;;;;;;;5.61;86.31;101263.59;5256743;28;20016;-70
2021/03/15 08:01:44;;;;;;;14.52;5.90;;;;;;;5.60;85.90;101266.25;5279350;28;20020;-69
2021/03/15 08:04:16;;;;;;;12.70;4.40;;;;;;;5.63;84.48;101268.69;5281130;28;20024;-70
2021/03/15 08:06:48;;;;;;;12.43;4.60;;;;;;;5.61;83.86;101273.97;5280023;28;20039;-69
2021/03/15 08:09:19;;;;;;;14.90;5.03;;;;;;;5.65;85.18;101277.25;5281180;28;20047;-70
2021/03/15 08:11:52;;;;;;;10.88;3.90;;;;;;;5.69;84.38;101275.31;5278415;28;20049;-69
2021/03/15 08:14:24;;;;;;;14.15;3.75;;;;;;;5.70;85.12;101271.78;5277435;28;20020;-70
2021/03/15 08:16:59;;;;;;;16.98;4.45;;;;;;;5.82;85.30;101284.88;5274071;28;20487;-70
2021/03/15 08:19:34;;;;;;;13.07;3.85;;;;;;;5.89;85.63;101280.19;5265530;28;20032;-70
2021/03/15 08:22:09;;;;;;;13.07;3.92;;;;;;;5.95;84.33;101279.88;5269538;28;20020;-69
2021/03/15 08:24:41;;;;;;;18.60;4.00;;;;;;;6.06;83.72;101274.88;5270530;28;20035;-69
2021/03/15 08:27:14;;;;;;;14.82;4.25;;;;;;;6.14;83.07;101289.16;5274811;28;20028;-70
2021/03/15 08:29:47;;;;;;;18.73;3.53;;;;;;;6.12;82.70;101285.84;5261275;28;20040;-70
2021/03/15 08:32:19;;;;;;;14.00;3.08;;;;;;;6.12;81.75;101291.88;5265055;28;20024;-69
2021/03/15 08:34:51;;;;;;;12.98;2.95;;;;;;;6.14;82.07;101296.97;5272860;28;20310;-69
2021/03/15 08:37:48;;;;;;;16.33;3.58;;;;;;;6.26;82.52;101294.50;5274237;28;20478;-70
2021/03/15 08:40:41;;;;;;;12.52;3.22;;;;;;;6.34;81.79;101300.06;5275981;28;20105;-70
2021/03/15 08:43:19;;;;;;;12.55;2.88;;;;;;;6.28;81.14;101297.00;5278439;28;20028;-70
2021/03/15 08:45:59;;;;;;;12.55;3.20;;;;;;;6.26;80.59;101296.25;5276098;28;20028;-70
2021/03/15 08:48:33;;;;;;;16.60;3.47;;;;;;;6.26;81.20;101302.31;5275109;28;20389;-70
2021/03/15 08:51:08;;;;;;;14.98;3.00;;;;;;;6.41;80.92;101307.53;5278620;28;20036;-68
2021/03/15 08:53:40;;;;;;;19.83;2.75;;;;;;;6.50;80.45;101312.16;5277263;28;20031;-70
2021/03/15 08:56:31;;;;;;;11.38;3.03;;;;;;;6.68;79.33;101299.81;5275078;28;20366;-70
2021/03/15 08:59:05;;;;;;;15.38;3.50;;;;;;;6.72;80.79;101298.69;5270367;28;20042;-70
2021/03/15 09:01:50;;;;;;;15.32;3.35;;;;;;;6.81;79.16;101303.31;5275039;28;20032;-70
2021/03/15 09:04:41;;;;;;;20.17;3.40;;;;;;;6.81;78.57;101314.56;5257326;28;20750;-70
2021/03/15 09:07:32;;;;;;;18.10;3.08;;;;;;;6.92;78.54;101310.47;5274972;28;20328;-70
2021/03/15 09:10:22;;;;;;;14.50;2.47;;;;;;;6.89;77.36;101313.25;5277758;28;20421;-70
2021/03/15 09:13:11;;;;;;;9.88;2.30;;;;;;;6.93;76.94;101310.41;5281418;28;20402;-70
2021/03/15 09:15:52;;;;;;;13.32;2.70;;;;;;;6.92;75.19;101305.25;5278348;28;20031;-70
2021/03/15 09:18:40;;;;;;;15.27;2.75;;;;;;;6.96;75.28;101299.75;5276485;28;20434;-70
2021/03/15 09:21:25;;;;;;;9.50;2.20;;;;;;;6.97;73.73;101303.19;5275847;28;20453;-70
2021/03/15 09:24:00;;;;;;;11.02;2.20;;;;;;;6.91;73.22;101304.44;5275601;28;20043;-70
2021/03/15 09:26:32;;;;;;;14.38;2.55;;;;;;;6.88;74.80;101309.81;5280482;28;20035;-70
2021/03/15 09:29:05;;;;;;;12.75;2.40;;;;;;;6.83;73.01;101301.47;5279206;28;20150;-70
2021/03/15 09:31:36;;;;;;;7.27;1.83;;;;;;;6.92;71.53;101313.06;5279114;28;20058;-70
2021/03/15 09:34:08;;;;;;;10.38;2.35;;;;;;;6.88;72.80;101317.63;5280940;28;20028;-70
2021/03/15 09:36:39;;;;;;;9.70;1.85;;;;;;;6.97;72.79;101330.09;5278994;28;20115;-69
2021/03/15 09:39:11;;;;;;;13.30;2.65;;;;;;;7.07;71.11;101330.34;5280285;28;20413;-70
2021/03/15 09:41:45;;;;;;;11.98;2.40;;;;;;;7.05;72.73;101333.06;5278457;28;20538;-71
2021/03/15 09:44:25;;;;;;;12.13;2.10;;;;;;;7.06;72.59;101339.94;5276423;28;20027;-70
2021/03/15 09:46:58;;;;;;;12.80;2.75;;;;;;;6.88;75.11;101353.28;5277583;28;20087;-70
2021/03/15 09:49:43;;;;;;;10.77;2.00;;;;;;;6.74;75.12;101359.31;5278129;28;20668;-70
2021/03/15 09:52:16;;;;;;;9.77;1.55;;;;;;;6.58;75.21;101360.22;5279375;28;20843;-70
2021/03/15 09:54:55;;;;;;;9.40;1.47;;;;;;;6.56;76.96;101382.09;5274175;28;20955;-70
2021/03/15 09:57:27;;;;;;;8.73;1.90;;;;;;;6.37;78.03;101386.72;5276033;28;20456;-69
2021/03/15 10:00:07;;;;;;;6.07;1.23;;;;;;;6.36;78.88;101385.84;5275718;28;20414;-70
2021/03/15 10:02:39;;;;;;;6.57;1.25;;;;;;;6.29;78.77;101389.75;5271719;28;20139;-70
2021/03/15 10:05:18;;;;;;;5.32;1.17;;;;;;;6.18;78.60;101386.94;5274121;28;20020;-70
2021/03/15 10:07:50;;;;;;;8.63;1.30;;;;;;;6.23;77.04;101384.91;5276594;28;20378;-69
2021/03/15 10:10:23;;;;;;;5.60;1.40;;;;;;;6.38;79.90;101377.97;5272108;28;20036;-70
2021/03/15 10:13:03;;;;;;;6.97;1.17;;;;;;;6.62;78.63;101384.31;5277857;28;20036;-70
2021/03/15 10:15:35;;;;;;;7.82;1.30;;;;;;;6.74;77.43;101390.56;5274052;28;20024;-70
2021/03/15 10:18:07;;;;;;;8.05;1.77;;;;;;;6.73;76.51;101389.72;5275838;28;20031;-70
2021/03/15 10:20:39;;;;;;;14.50;1.90;;;;;;;6.75;74.87;101387.88;5272905;28;20331;-69
2021/03/15 10:23:12;;;;;;;6.43;1.77;;;;;;;6.74;74.91;101380.13;5271481;28;20037;-70
2021/03/15 10:25:53;;;;;;;7.20;1.48;;;;;;;6.83;75.23;101387.41;5241250;28;20055;-69
2021/03/15 10:28:27;;;;;;;10.70;2.45;;;;;;;6.97;75.93;101373.53;5274318;28;20238;-69
2021/03/15 10:30:59;;;;;;;9.90;2.03;;;;;;;7.20;75.05;101377.34;5276182;28;21340;-68
2021/03/15 10:33:30;;;;;;;8.15;1.88;;;;;;;7.40;75.72;101369.13;5276098;28;20032;-69
2021/03/15 10:36:09;;;;;;;13.45;2.53;;;;;;;7.61;75.40;101376.50;5276771;28;20077;-71
2021/03/15 10:38:41;;;;;;;6.50;2.05;;;;;;;7.67;72.22;101365.69;5277794;28;20444;-71
2021/03/15 10:41:12;;;;;;;10.77;2.13;;;;;;;7.65;70.87;101373.63;5273841;28;20035;-71
2021/03/15 10:43:45;;;;;;;6.43;1.45;;;;;;;7.64;70.03;101373.69;5271455;28;20090;-71
2021/03/15 10:46:21;;;;;;;7.50;1.77;;;;;;;7.47;70.84;101393.88;5261079;28;20044;-71
2021/03/15 10:48:54;;;;;;;8.00;2.20;;;;;;;7.30;71.32;101396.69;5271254;28;20286;-70
2021/03/15 10:51:25;;;;;;;14.60;1.95;;;;;;;7.11;73.19;101411.78;5275312;28;20028;-71
2021/03/15 10:53:56;;;;;;;5.32;1.30;;;;;;;6.88;74.09;101418.38;5270867;28;20024;-71
2021/03/15 10:56:28;;;;;;;9.57;2.08;;;;;;;6.73;76.24;101405.34;5270184;28;20115;-71
2021/03/15 10:58:59;;;;;;;8.48;1.83;;;;;;;6.61;76.06;101403.47;5273075;28;20575;-71
2021/03/15 11:01:30;;;;;;;9.75;2.00;;;;;;;6.69;77.76;101405.63;5278101;28;20021;-71
2021/03/15 11:04:10;;;;;;;10.60;1.80;;;;;;;6.92;76.40;101407.69;5274113;28;20409;-71
2021/03/15 11:06:41;;;;;;;7.43;1.55;;;;;;;6.99;75.43;101403.78;5259074;28;20035;-70
2021/03/15 11:09:16;;;;;;;8.23;1.60;;;;;;;7.28;74.22;101398.56;5278362;28;20028;-69
2021/03/15 11:11:55;;;;;;;8.13;2.00;;;;;;;7.49;73.26;101399.81;5273855;28;20034;-70
2021/03/15 11:14:26;;;;;;;8.88;2.13;;;;;;;7.67;73.24;101417.84;5266431;28;20036;-69
2021/03/15 11:17:00;;;;;;;8.68;2.00;;;;;;;7.82;71.23;101403.81;5277672;28;20032;-69
2021/03/15 11:19:32;;;;;;;9.93;2.15;;;;;;;7.85;69.68;101402.78;5277064;28;20036;-69
2021/03/15 11:22:03;;;;;;;9.10;1.55;;;;;;;7.66;72.33;101426.59;5275353;28;20051;-69
2021/03/15 11:24:34;;;;;;;8.00;1.70;;;;;;;7.42;70.14;101432.41;5258389;28;20024;-69
2021/03/15 11:27:06;;;;;;;9.75;2.08;;;;;;;7.12;71.70;101426.47;5275479;28;20810;-69
2021/03/15 11:29:39;;;;;;;10.88;1.83;;;;;;;7.18;70.33;101437.38;5275885;28;20421;-69
2021/03/15 11:32:12;;;;;;;;;;;;;;;7.46;71.66;101425.22;5279084;28;20032;-69
2021/03/15 11:34:47;;;;;;;13.57;1.67;;;;;;;7.53;71.06;101432.56;5273492;28;19947;-69
2021/03/15 11:37:26;;;;;;;13.45;1.98;;;;;;;7.76;69.45;101428.50;5274346;28;20249;-70
2021/03/15 11:39:57;;;;;;;10.65;1.67;;;;;;;7.79;66.35;101422.28;5273877;28;20802;-69
2021/03/15 11:42:33;;;;;;;11.60;2.10;;;;;;;7.94;65.77;101426.50;5276746;28;20129;-69
2021/03/15 11:45:05;;;;;;;8.85;1.70;;;;;;;8.12;66.14;101421.88;5242018;28;20043;-69
2021/03/15 11:47:36;;;;;;;13.27;2.75;;;;;;;8.35;65.40;101420.38;5258293;28;20405;-69
2021/03/15 11:50:08;;;;;;;12.23;2.13;;;;;;;8.54;65.21;101430.44;5274376;28;20032;-69
2021/03/15 11:52:40;;;;;;;7.40;1.65;;;;;;;8.55;62.11;101420.84;5269734;28;20126;-69
2021/03/15 11:55:12;;;;;;;11.18;1.75;;;;;;;8.50;62.04;101426.38;5268592;28;20029;-69
2021/03/15 11:57:44;;;;;;;7.07;1.90;;;;;;;8.44;61.62;101425.00;5265583;28;20093;-69
2021/03/15 12:00:18;;;;;;;10.15;1.90;;;;;;;8.30;61.68;101435.50;5249842;28;20016;-69
2021/03/15 12:02:51;;;;;;;6.50;1.83;;;;;;;8.20;59.80;101434.44;5270958;28;20029;-69